Sea Cloud II — 9HUE6 — position and weather

sailwx.info

Track history (hours):
 
Tides and Currents Weather Stations Pressure Air Temp Water Temp Dewpoint Dewpoint Depression Visibility Wind Speed Wind Dir Waves Ship Positions

Sea Cloud II

Ship's website: http://www.seacloud.com/en/the-ships/sea-cloud-ii.html

Last reported at 2014-Dec-12 23:33 UTC. Time now 2014-Dec-17 23:19 UTC.
Position N 18°24' W 064°32'.

Length 117 m; draft 5.8 m.

Type: Passenger vessel. MMSI: 248953000.

Date/timePositionNaut miles runAvg speedWind from/ knotsBaromVisibWave heightAir tempDewpointWater temp
2014-Dec-12 23:33N 18°24' W 064°32'7 6.6
2014-Dec-12 22:32N 18°22' W 064°39'6 6.5
2014-Dec-12 21:33N 18°23' W 064°46'3 3.3
2014-Dec-12 20:30N 18°26' W 064°46'0 0.0
2014-Dec-12 19:30N 18°26' W 064°46'0 0.0
2014-Dec-12 18:30N 18°26' W 064°46'0 0.0
2014-Dec-12 17:33N 18°26' W 064°46'0 0.0
2014-Dec-12 16:27N 18°26' W 064°46'0 0.0
2014-Dec-12 15:33N 18°26' W 064°46'0 0.0
2014-Dec-12 14:33N 18°26' W 064°46'0 0.0
2014-Dec-12 13:33N 18°26' W 064°46'0 0.0
2014-Dec-12 12:33N 18°26' W 064°46'1 0.6
2014-Dec-12 11:33N 18°26' W 064°45'74 1.5
2014-Dec-10 10:32N 18°05' W 063°31'1312.7
2014-Dec-10 09:32N 17°58' W 063°20'100 3.8
2014-Dec-09 07:28N 17°16' W 061°44'7 7.3
2014-Dec-09 06:33N 17°17' W 061°37'7 7.5
2014-Dec-09 05:33N 17°15' W 061°29'7 7.5
2014-Dec-09 04:33N 17°14' W 061°22'8 7.6
2014-Dec-09 03:32N 17°13' W 061°14'  
Track history (hours):
 
Tides and Currents Weather Stations Pressure Air Temp Water Temp Dewpoint Dewpoint Depression Visibility Wind Speed Wind Dir Waves Ship Positions

Sea Cloud II

Ship's website: http://www.seacloud.com/en/the-ships/sea-cloud-ii.html

Last reported at 2014-Dec-12 23:33 UTC. Time now 2014-Dec-17 23:19 UTC.
Position N 18°24' W 064°32'.

Length 117 m; draft 5.8 m.

Type: Passenger vessel. MMSI: 248953000.

Date/timePositionNaut miles runAvg speedWind from/ knotsBaromVisibWave heightAir tempDewpointWater temp
2014-Dec-12 23:33N 18°24' W 064°32'7 6.6
2014-Dec-12 22:32N 18°22' W 064°39'6 6.5
2014-Dec-12 21:33N 18°23' W 064°46'3 3.3
2014-Dec-12 20:30N 18°26' W 064°46'0 0.0
2014-Dec-12 19:30N 18°26' W 064°46'0 0.0
2014-Dec-12 18:30N 18°26' W 064°46'0 0.0
2014-Dec-12 17:33N 18°26' W 064°46'0 0.0
2014-Dec-12 16:27N 18°26' W 064°46'0 0.0
2014-Dec-12 15:33N 18°26' W 064°46'0 0.0
2014-Dec-12 14:33N 18°26' W 064°46'0 0.0
2014-Dec-12 13:33N 18°26' W 064°46'0 0.0
2014-Dec-12 12:33N 18°26' W 064°46'1 0.6
2014-Dec-12 11:33N 18°26' W 064°45'74 1.5
2014-Dec-10 10:32N 18°05' W 063°31'1312.7
2014-Dec-10 09:32N 17°58' W 063°20'100 3.8
2014-Dec-09 07:28N 17°16' W 061°44'7 7.3
2014-Dec-09 06:33N 17°17' W 061°37'7 7.5
2014-Dec-09 05:33N 17°15' W 061°29'7 7.5
2014-Dec-09 04:33N 17°14' W 061°22'8 7.6
2014-Dec-09 03:32N 17°13' W 061°14'  

Dump ship's entire track history